TimeEST,TemperatureF,Dew PointF,Humidity,Sea Level PressureIn,VisibilityMPH,Wind Direction,Wind SpeedMPH,Gust SpeedMPH,PrecipitationIn,Events,Conditions,WindDirDegrees,DateUTC
12:53 AM,34.0,24.1,67,30.32,10.0,SW,12.7,-,N/A,,Overcast,220,2012-11-13 05:53:00
1:53 AM,33.1,23.0,66,30.32,10.0,SW,11.5,-,N/A,,Overcast,220,2012-11-13 06:53:00
2:53 AM,33.1,21.9,64,30.34,10.0,SSW,10.4,-,N/A,,Overcast,210,2012-11-13 07:53:00
3:53 AM,33.1,23.0,66,30.34,10.0,SSW,10.4,-,N/A,,Overcast,210,2012-11-13 08:53:00
4:53 AM,33.1,21.9,64,30.35,10.0,SW,10.4,-,N/A,,Overcast,220,2012-11-13 09:53:00
5:53 AM,33.1,23.0,66,30.36,10.0,SW,9.2,-,N/A,,Overcast,220,2012-11-13 10:53:00
6:53 AM,33.1,21.9,64,30.38,10.0,SW,10.4,-,N/A,,Overcast,230,2012-11-13 11:53:00
7:53 AM,33.1,21.9,64,30.41,10.0,SW,8.1,-,N/A,,Overcast,220,2012-11-13 12:53:00
8:53 AM,33.1,23.0,66,30.43,10.0,SW,9.2,-,N/A,,Overcast,220,2012-11-13 13:53:00
9:22 AM,33.8,23.0,65,30.42,10.0,SW,8.1,-,0.00,Snow,Light Snow,230,2012-11-13 14:22:00
9:53 AM,33.1,24.1,70,30.46,7.0,WSW,9.2,-,0.00,Snow,Light Snow,240,2012-11-13 14:53:00
10:53 AM,33.1,25.0,72,30.48,9.0,SW,8.1,-,0.00,Snow,Light Snow,230,2012-11-13 15:53:00
11:53 AM,33.1,26.1,75,30.48,10.0,SW,6.9,-,0.00,,Overcast,220,2012-11-13 16:53:00
12:05 PM,33.8,26.6,75,30.44,10.0,SW,8.1,-,N/A,,Overcast,220,2012-11-13 17:05:00
12:53 PM,33.1,27.0,78,30.47,10.0,WSW,6.9,-,N/A,,Overcast,250,2012-11-13 17:53:00
1:53 PM,34.0,27.0,75,30.47,10.0,WSW,5.8,-,N/A,,Overcast,240,2012-11-13 18:53:00
2:53 PM,34.0,27.0,75,30.47,10.0,SW,6.9,-,N/A,,Overcast,230,2012-11-13 19:53:00
3:00 PM,33.8,26.6,75,30.45,10.0,SW,6.9,-,N/A,,Overcast,230,2012-11-13 20:00:00
3:53 PM,34.0,27.0,75,30.49,10.0,SW,4.6,-,N/A,,Overcast,230,2012-11-13 20:53:00
4:53 PM,34.0,27.0,75,30.50,10.0,WSW,4.6,-,N/A,,Overcast,240,2012-11-13 21:53:00
5:53 PM,34.0,27.0,75,30.51,10.0,SW,4.6,-,N/A,,Overcast,230,2012-11-13 22:53:00
6:53 PM,33.1,27.0,78,30.53,10.0,Calm,Calm,-,N/A,,Overcast,0,2012-11-13 23:53:00
7:53 PM,34.0,28.0,79,30.53,10.0,Calm,Calm,-,N/A,,Overcast,0,2012-11-14 00:53:00
8:12 PM,33.8,26.6,75,30.51,10.0,Calm,Calm,-,N/A,,Overcast,0,2012-11-14 01:12:00
8:53 PM,33.1,27.0,78,30.55,10.0,Calm,Calm,-,N/A,,Overcast,0,2012-11-14 01:53:00
9:53 PM,34.0,27.0,75,30.56,10.0,Calm,Calm,-,N/A,,Overcast,0,2012-11-14 02:53:00
10:53 PM,34.0,27.0,75,30.56,10.0,Calm,Calm,-,N/A,,Overcast,0,2012-11-14 03:53:00
11:53 PM,34.0,27.0,75,30.57,10.0,South,3.5,-,N/A,,Overcast,170,2012-11-14 04:53:00